createdAt,value
2016-06-08T12:31:16.229Z,40.65
2016-06-08T12:32:01.217Z,39.51
2016-06-08T12:33:02.157Z,41.23
2016-06-08T12:34:01.301Z,40.65
2016-06-08T12:35:02.178Z,41.81
2016-06-08T12:36:02.009Z,41.81
2016-06-08T12:37:01.090Z,40.17
2016-06-08T12:38:02.389Z,40.26
2016-06-08T12:39:01.376Z,40.75
2016-06-08T12:40:01.254Z,39.01
2016-06-08T12:41:00.850Z,40.45
2016-06-08T12:42:01.353Z,41.81
2016-06-08T12:43:01.215Z,42.1
2016-06-08T12:44:00.859Z,39.29
2016-06-08T12:45:01.376Z,38.64
2016-06-08T12:46:01.114Z,39.59
2016-06-08T12:47:02.101Z,37.85
2016-06-08T12:48:03.713Z,38.71
2016-06-08T12:49:07.919Z,38.33
2016-06-08T12:50:08.906Z,36.79
2016-06-08T12:51:01.596Z,37.75
2016-06-08T12:52:01.849Z,36.4
2016-06-08T12:53:01.398Z,36.5
2016-06-08T12:54:01.432Z,40.65
2016-06-08T12:55:15.685Z,38.91
2016-06-08T12:56:26.516Z,37.95
2016-06-08T12:57:44.537Z,36.11
2016-06-08T12:58:45.883Z,36.3
2016-06-08T12:59:43.652Z,37.46
2016-06-08T13:00:45.483Z,37.65
2016-06-08T13:01:43.204Z,37.46
2016-06-08T13:02:47.394Z,36.4
2016-06-08T13:03:44.537Z,34.76
2016-06-08T13:04:43.352Z,36.88
2016-06-08T13:05:43.027Z,37.46
2016-06-08T13:07:01.717Z,38.04
2016-06-08T13:07:52.657Z,38.71
2016-06-08T13:08:53.550Z,34.95
2016-06-08T13:09:55.693Z,34.66
2016-06-08T13:10:52.932Z,35.24
2016-06-08T13:11:53.574Z,36.3
2016-06-08T13:12:53.608Z,37.46
2016-06-08T13:13:53.720Z,38.53
2016-06-08T13:14:53.129Z,38.04
